createdAt,value
2024-05-09T00:04:19.859Z,53132.38
2024-05-09T00:09:11.764Z,53120.34
2024-05-09T00:14:03.798Z,53118.34
2024-05-09T00:18:55.797Z,53110.31
2024-05-09T00:23:47.676Z,53126.38
2024-05-09T00:28:39.523Z,53120.34
2024-05-09T00:33:31.522Z,53134.41
2024-05-09T00:38:23.651Z,53128.38
2024-05-09T00:43:15.767Z,53128.38
2024-05-09T00:48:10.038Z,53130.38
2024-05-09T00:53:03.291Z,53098.25
2024-05-09T00:57:55.471Z,53124.34
2024-05-09T01:02:48.109Z,53136.41
2024-05-09T01:07:40.145Z,53118.34
2024-05-09T01:12:32.149Z,53102.25
2024-05-09T01:17:25.576Z,53100.25
2024-05-09T01:22:17.590Z,53132.38
2024-05-09T01:27:09.402Z,53128.38
2024-05-09T01:32:01.381Z,53106.28
2024-05-09T01:36:53.319Z,53112.31
2024-05-09T01:41:45.257Z,53124.34
2024-05-09T01:46:37.236Z,53128.38
2024-05-09T01:51:29.097Z,53124.34
2024-05-09T01:56:21.006Z,53146.44
2024-05-09T02:01:13.045Z,53158.50
2024-05-09T02:06:05.572Z,53128.38
2024-05-09T02:10:57.681Z,53100.25
2024-05-09T02:15:52.162Z,53136.41
2024-05-09T02:20:44.380Z,53120.34
2024-05-09T02:25:36.462Z,53116.31
2024-05-09T02:35:23.163Z,53144.44
2024-05-09T02:40:21.570Z,53090.22
2024-05-09T02:45:17.542Z,53124.34
2024-05-09T02:50:13.269Z,53126.38
2024-05-09T02:55:07.858Z,53122.34
2024-05-09T02:59:59.683Z,53136.41
2024-05-09T03:04:51.618Z,53118.34
2024-05-09T03:09:47.468Z,53096.25
2024-05-09T03:14:39.455Z,53096.25
2024-05-09T03:19:31.500Z,53152.47
2024-05-09T03:24:23.442Z,53126.38
2024-05-09T03:29:15.336Z,53132.38
2024-05-09T03:34:07.419Z,53112.31
2024-05-09T03:38:59.370Z,53128.38
2024-05-09T03:43:51.370Z,53094.22
2024-05-09T03:48:43.363Z,53122.34
2024-05-09T03:53:37.118Z,53096.25
2024-05-09T04:03:34.883Z,53112.31
2024-05-09T04:08:26.828Z,53110.31
2024-05-09T04:13:18.670Z,53108.28
2024-05-09T04:18:10.667Z,53108.28
2024-05-09T04:23:02.641Z,53136.41
2024-05-09T04:27:55.881Z,53132.38
2024-05-09T04:32:47.889Z,53120.34
2024-05-09T04:37:39.793Z,53138.41
2024-05-09T04:42:31.809Z,53106.28
2024-05-09T04:47:23.818Z,53096.25
2024-05-09T04:52:15.715Z,53114.31
2024-05-09T04:57:07.546Z,53116.31
2024-05-09T05:01:59.477Z,53124.34
2024-05-09T05:06:51.386Z,53108.28
2024-05-09T05:11:43.380Z,53084.19
2024-05-09T05:16:35.335Z,53112.31
2024-05-09T05:21:27.357Z,53078.16
2024-05-09T05:26:20.548Z,53112.31
2024-05-09T05:31:12.667Z,53100.25
2024-05-09T05:36:04.890Z,53108.28
2024-05-09T05:40:56.949Z,53120.34
2024-05-09T05:45:48.887Z,53132.38
2024-05-09T05:50:40.770Z,53084.19
2024-05-09T05:55:32.713Z,53128.38
2024-05-09T06:00:30.105Z,53076.16
2024-05-09T06:05:29.322Z,53100.25
2024-05-09T06:10:25.704Z,53100.25
2024-05-09T06:15:21.943Z,53096.25
2024-05-09T06:20:20.542Z,53106.28
2024-05-09T06:25:18.715Z,53072.16
2024-05-09T06:30:21.126Z,53096.25
2024-05-09T06:35:18.100Z,53114.31
2024-05-09T06:40:12.546Z,53074.16
2024-05-09T06:45:06.876Z,53116.31
2024-05-09T06:49:58.718Z,53116.31
2024-05-09T06:54:50.560Z,53104.28
2024-05-09T06:59:42.482Z,53078.16
2024-05-09T07:04:34.401Z,53080.19
2024-05-09T07:09:26.328Z,53104.28
2024-05-09T07:14:19.148Z,53080.19
2024-05-09T07:19:11.409Z,53096.25
2024-05-09T07:24:03.516Z,53080.19
2024-05-09T07:28:55.367Z,53074.16
2024-05-09T07:33:47.311Z,53078.16
2024-05-09T07:38:39.338Z,53068.13
2024-05-09T07:43:31.301Z,53092.22
2024-05-09T07:53:40.464Z,53076.16
2024-05-09T07:58:36.654Z,53112.31
2024-05-09T08:03:28.892Z,53048.06
2024-05-09T08:08:20.881Z,53064.13
2024-05-09T08:13:12.801Z,53064.13
2024-05-09T08:18:09.309Z,53058.09
2024-05-09T08:23:01.257Z,53078.16
2024-05-09T08:27:53.170Z,53076.16
2024-05-09T08:32:47.713Z,53076.16
2024-05-09T08:37:40.709Z,53054.06
2024-05-09T08:42:35.525Z,53060.09
2024-05-09T08:47:32.504Z,53096.25
2024-05-09T08:52:24.965Z,53042.03
2024-05-09T08:57:18.120Z,53025.97
2024-05-09T09:02:13.968Z,53036.00
2024-05-09T09:07:06.865Z,53034.00
2024-05-09T09:11:58.779Z,53044.03
2024-05-09T09:16:51.815Z,53007.91
2024-05-09T09:21:43.733Z,53009.91
2024-05-09T09:26:35.617Z,53019.94
2024-05-09T09:31:27.596Z,53019.94
2024-05-09T09:36:19.627Z,52999.88
2024-05-09T09:41:12.770Z,52975.78
2024-05-09T09:46:08.632Z,52975.78
2024-05-09T09:51:03.107Z,52979.78
2024-05-09T09:55:59.019Z,52999.88
2024-05-09T10:00:50.907Z,53017.94
2024-05-09T10:05:46.335Z,53007.91
2024-05-09T10:10:40.135Z,52983.81
2024-05-09T10:15:52.004Z,53005.88
2024-05-09T10:20:46.000Z,53003.88
2024-05-09T10:25:37.857Z,53027.97
2024-05-09T10:30:35.823Z,53027.97
2024-05-09T10:35:32.005Z,52977.78
2024-05-09T10:40:29.336Z,53025.97
2024-05-09T10:45:24.680Z,52979.78
2024-05-09T10:50:22.634Z,52997.84
2024-05-09T10:55:20.423Z,52979.78
2024-05-09T11:00:19.454Z,53001.88
2024-05-09T11:05:20.074Z,52975.78
2024-05-09T11:10:14.577Z,53007.91
2024-05-09T11:15:06.752Z,52971.75
2024-05-09T11:20:00.271Z,52949.66
2024-05-09T11:24:52.627Z,52967.75
2024-05-09T11:29:45.595Z,53007.91
2024-05-09T11:34:42.147Z,52993.84
2024-05-09T11:39:35.191Z,52931.59
2024-05-09T11:44:27.377Z,52965.72
2024-05-09T11:49:19.671Z,52931.59
2024-05-09T11:54:11.583Z,52943.66
2024-05-09T11:59:03.719Z,52929.59
2024-05-09T12:03:55.780Z,52947.66
2024-05-09T12:08:48.115Z,52913.53
2024-05-09T12:13:40.279Z,52879.38
2024-05-09T12:18:33.917Z,52889.44
2024-05-09T12:23:25.929Z,52917.53
2024-05-09T12:28:18.182Z,52903.50
2024-05-09T12:33:14.005Z,52925.56
2024-05-09T12:38:06.128Z,52915.53
2024-05-09T12:42:58.006Z,52899.47
2024-05-09T12:47:50.121Z,52923.56
2024-05-09T12:52:42.010Z,52917.53
2024-05-09T12:57:34.022Z,52937.63
2024-05-09T13:02:26.057Z,52927.59
2024-05-09T13:07:18.720Z,52895.44
2024-05-09T13:12:10.613Z,52901.47
2024-05-09T13:17:02.588Z,52939.63
2024-05-09T13:21:54.469Z,52925.56
2024-05-09T13:26:46.334Z,52927.59
2024-05-09T13:31:38.237Z,52909.50
2024-05-09T13:36:30.153Z,52915.53
2024-05-09T13:41:22.023Z,52915.53
2024-05-09T13:46:13.947Z,52915.53
2024-05-09T13:51:05.957Z,52931.59
2024-05-09T13:55:57.818Z,52905.50
2024-05-09T14:00:49.915Z,52883.41
2024-05-09T14:05:42.105Z,52911.50
2024-05-09T14:10:35.415Z,52891.44
2024-05-09T14:15:27.321Z,52911.50
2024-05-09T14:20:28.624Z,52899.47
2024-05-09T14:25:26.184Z,52899.47
2024-05-09T14:30:26.141Z,52883.41
2024-05-09T14:35:25.929Z,52907.50
2024-05-09T14:40:29.741Z,52917.53
2024-05-09T14:45:28.679Z,52919.53
2024-05-09T14:50:28.020Z,52935.59
2024-05-09T14:55:26.868Z,52925.56
2024-05-09T15:00:26.141Z,52919.53
2024-05-09T15:05:21.480Z,52909.50
2024-05-09T15:10:20.424Z,52907.50
2024-05-09T15:15:17.363Z,52913.53
2024-05-09T15:20:09.918Z,52891.44
2024-05-09T15:25:08.440Z,52915.53
2024-05-09T15:30:02.166Z,52871.34
2024-05-09T15:34:54.014Z,52931.59
2024-05-09T15:39:46.123Z,52907.50
2024-05-09T15:44:38.225Z,52931.59
2024-05-09T15:49:30.328Z,52907.50
2024-05-09T15:54:23.595Z,52963.72
2024-05-09T15:59:18.256Z,52921.56
2024-05-09T16:04:10.870Z,52881.41
2024-05-09T16:09:03.025Z,52903.50
2024-05-09T16:13:54.850Z,52915.53
2024-05-09T16:18:46.843Z,52909.50
2024-05-09T16:23:40.376Z,52943.66
2024-05-09T16:28:32.392Z,52935.59
2024-05-09T16:33:26.028Z,52925.56
2024-05-09T16:38:19.292Z,52927.59
2024-05-09T16:43:13.098Z,52905.50
2024-05-09T16:48:06.913Z,52935.59
2024-05-09T16:52:58.987Z,52919.53
2024-05-09T16:57:51.344Z,52905.50
2024-05-09T17:02:44.143Z,52909.50
2024-05-09T17:07:36.339Z,52931.59
2024-05-09T17:12:28.208Z,52951.69
2024-05-09T17:17:20.937Z,52951.69
2024-05-09T17:22:16.047Z,52929.59
2024-05-09T17:27:08.948Z,52967.75
2024-05-09T17:32:00.805Z,52939.63
2024-05-09T17:36:52.991Z,52971.75
2024-05-09T17:41:44.916Z,52953.69
2024-05-09T17:46:36.854Z,52955.69
2024-05-09T17:51:31.699Z,52959.72
2024-05-09T17:56:23.722Z,52987.81
2024-05-09T18:01:15.874Z,52957.69
2024-05-09T18:06:08.540Z,52973.75
2024-05-09T18:11:00.540Z,52975.78
2024-05-09T18:15:52.883Z,52941.63
2024-05-09T18:20:46.163Z,53009.91
2024-05-09T18:25:38.483Z,52967.75
2024-05-09T18:30:34.965Z,52973.75
2024-05-09T18:35:28.476Z,52983.81
2024-05-09T18:40:27.380Z,52993.84
2024-05-09T18:45:23.219Z,52979.78
2024-05-09T18:50:24.370Z,53001.88
2024-05-09T18:55:23.628Z,52975.78
2024-05-09T19:00:26.794Z,52973.75
2024-05-09T19:05:25.909Z,52985.81
2024-05-09T19:10:22.685Z,52971.75
2024-05-09T19:15:17.963Z,52983.81
2024-05-09T19:20:20.510Z,52975.78
2024-05-09T19:25:20.105Z,53005.88
2024-05-09T19:30:21.037Z,52999.88
2024-05-09T19:35:17.379Z,53001.88
2024-05-09T19:40:14.815Z,52995.84
2024-05-09T19:45:12.752Z,52995.84
2024-05-09T19:50:10.541Z,52995.84
2024-05-09T19:55:03.045Z,53011.91
2024-05-09T19:59:55.048Z,53017.94
2024-05-09T20:04:47.852Z,53007.91
2024-05-09T20:09:39.774Z,52999.88
2024-05-09T20:14:31.673Z,53003.88
2024-05-09T20:19:23.557Z,53017.94
2024-05-09T20:24:15.493Z,53011.91
2024-05-09T20:29:07.328Z,53019.94
2024-05-09T20:33:59.217Z,53019.94
2024-05-09T20:38:51.082Z,53032.00
2024-05-09T20:43:42.921Z,53054.06
2024-05-09T20:48:34.962Z,53044.03
2024-05-09T20:53:27.005Z,53032.00
2024-05-09T20:58:18.965Z,53044.03
2024-05-09T21:03:12.491Z,53032.00
2024-05-09T21:08:05.288Z,53062.09
2024-05-09T21:12:57.144Z,53048.06
2024-05-09T21:17:48.996Z,53052.06
2024-05-09T21:22:40.858Z,53048.06
2024-05-09T21:27:34.165Z,53019.94
2024-05-09T21:32:26.175Z,53048.06
2024-05-09T21:37:18.249Z,53023.97
2024-05-09T21:42:10.171Z,53027.97
2024-05-09T21:47:02.026Z,53011.91
2024-05-09T21:51:53.960Z,53064.13
2024-05-09T21:56:45.793Z,53092.22
2024-05-09T22:06:47.074Z,53060.09
2024-05-09T22:11:39.001Z,53019.94
2024-05-09T22:21:37.042Z,53048.06
2024-05-09T22:26:28.884Z,53050.06
2024-05-09T22:31:20.784Z,53011.91
2024-05-09T22:36:12.746Z,53050.06
2024-05-09T22:41:09.553Z,53062.09
2024-05-09T22:46:03.376Z,53074.16
2024-05-09T22:50:55.344Z,53060.09
2024-05-09T22:55:47.278Z,53094.22
2024-05-09T23:00:39.217Z,53104.28
2024-05-09T23:05:32.602Z,53052.06
2024-05-09T23:10:32.009Z,53080.19
2024-05-09T23:15:27.981Z,53068.13
2024-05-09T23:20:29.885Z,53082.19
2024-05-09T23:25:28.614Z,53080.19
2024-05-09T23:30:29.227Z,53096.25
2024-05-09T23:35:28.682Z,53080.19
2024-05-09T23:40:23.305Z,53094.22
2024-05-09T23:45:15.946Z,53108.28
2024-05-09T23:50:13.833Z,53132.38
2024-05-09T23:55:08.494Z,53108.28
